Time;durP1;ratioP1;P1;durP2;ratioP2;P2;SDS_P1;SDS_P2;PMS_P1;PMS_P2;Temp;Humidity;BMP_temperature;BMP_pressure;BME280_temperature;BME280_humidity;BME280_pressure;Samples;Min_cycle;Max_cycle;Signal;HPM_P1;HPM_P2
2022/01/28 00:01:04;;;;;;;17.70;2.37;;;5.00;1.00;;;;;;6244460;23;20166;-75
2022/01/28 00:03:33;;;;;;;13.00;1.87;;;5.10;99.90;;;;;;6246563;23;20209;-75
2022/01/28 00:06:00;;;;;;;14.10;2.20;;;5.10;1.00;;;;;;6246488;23;20186;-75
2022/01/28 00:08:28;;;;;;;9.30;1.97;;;5.10;1.00;;;;;;6246450;23;20570;-75
2022/01/28 00:10:55;;;;;;;12.63;1.97;;;5.20;1.00;;;;;;6245881;23;20159;-75
2022/01/28 00:13:26;;;;;;;12.77;2.37;;;5.10;1.00;;;;;;6246580;23;20166;-75
2022/01/28 00:16:25;;;;;;;13.37;2.40;;;5.10;1.00;;;;;;6245415;23;20170;-75
2022/01/28 00:19:10;;;;;;;12.93;2.03;;;5.10;1.00;;;;;;6246251;23;20604;-75
2022/01/28 00:38:12;;;;;;;14.10;2.20;;;4.90;1.00;;;;;;6245473;23;20233;-75
2022/01/28 00:40:40;;;;;;;11.73;2.53;;;5.00;1.00;;;;;;6218971;23;20184;-74
2022/01/28 00:43:08;;;;;;;14.10;2.30;;;5.00;1.00;;;;;;6245226;23;20162;-74
2022/01/28 00:45:35;;;;;;;10.80;2.00;;;5.00;1.00;;;;;;6245557;23;20680;-74
2022/01/28 00:48:01;;;;;;;19.13;3.07;;;4.90;1.00;;;;;;6245882;23;20269;-75
2022/01/28 00:50:28;;;;;;;13.97;3.13;;;5.00;99.90;;;;;;6245986;23;20159;-75
2022/01/28 00:52:55;;;;;;;15.30;2.50;;;5.00;52.80;;;;;;6245536;23;20166;-75
2022/01/28 00:55:22;;;;;;;14.67;2.43;;;5.00;99.90;;;;;;6245868;23;20241;-75
2022/01/28 00:57:51;;;;;;;10.90;2.27;;;5.00;1.00;;;;;;6246075;23;20155;-75
2022/01/28 01:00:18;;;;;;;16.80;2.37;;;5.00;99.90;;;;;;6245787;23;20469;-75
2022/01/28 01:02:45;;;;;;;17.03;3.73;;;5.00;99.90;;;;;;6245183;23;20488;-75
2022/01/28 01:05:12;;;;;;;17.50;2.70;;;5.10;74.00;;;;;;6245269;23;20165;-75
2022/01/28 01:07:40;;;;;;;15.63;2.50;;;5.10;1.00;;;;;;6244123;23;20178;-70
2022/01/28 01:10:09;;;;;;;17.67;3.03;;;5.10;1.00;;;;;;6245000;23;20170;-70
2022/01/28 01:12:41;;;;;;;14.07;2.63;;;5.20;1.00;;;;;;6245860;23;20579;-71
2022/01/28 01:15:13;;;;;;;17.00;2.37;;;5.20;1.00;;;;;;6245993;23;20159;-70
2022/01/28 01:17:46;;;;;;;20.60;3.07;;;5.20;1.00;;;;;;6243670;23;20194;-70
2022/01/28 01:20:34;;;;;;;12.83;2.43;;;5.20;1.00;;;;;;6245487;23;20222;-70
2022/01/28 01:23:08;;;;;;;21.20;2.70;;;5.30;1.00;;;;;;6245511;23;20590;-70
2022/01/28 01:25:44;;;;;;;16.30;2.77;;;5.30;1.00;;;;;;6217954;23;20265;-70
2022/01/28 01:28:11;;;;;;;10.37;2.37;;;5.30;99.90;;;;;;6218703;23;20224;-70
2022/01/28 01:30:42;;;;;;;14.73;2.57;;;5.30;94.50;;;;;;6245276;23;20807;-70
2022/01/28 01:33:10;;;;;;;14.50;2.93;;;5.30;1.00;;;;;;6245574;23;20243;-70
2022/01/28 01:35:37;;;;;;;14.60;2.37;;;5.30;1.00;;;;;;6245459;23;20590;-70
2022/01/28 01:38:05;;;;;;;18.27;2.90;;;5.30;1.00;;;;;;6245804;23;20159;-70
2022/01/28 01:40:38;;;;;;;18.50;2.67;;;5.20;1.00;;;;;;6245654;23;20167;-70
2022/01/28 01:43:11;;;;;;;13.20;2.43;;;5.10;1.00;;;;;;6245228;23;20163;-70
2022/01/28 01:45:54;;;;;;;13.27;2.63;;;5.10;1.00;;;;;;6244417;23;20169;-70
2022/01/28 01:53:57;;;;;;;15.47;2.60;;;5.00;1.00;;;;;;6245398;23;20162;-71
2022/01/28 01:56:25;;;;;;;9.70;2.13;;;4.90;99.90;;;;;;6245355;23;20493;-70
2022/01/28 01:58:52;;;;;;;12.27;2.23;;;4.90;99.90;;;;;;6245225;23;20158;-70
2022/01/28 02:01:20;;;;;;;14.87;2.20;;;4.90;1.00;;;;;;6244744;23;20245;-70
2022/01/28 02:03:48;;;;;;;16.03;2.67;;;4.90;1.00;;;;;;6244714;23;20249;-71
2022/01/28 02:06:18;;;;;;;11.00;1.83;;;4.90;1.00;;;;;;6245021;23;20541;-71
2022/01/28 02:08:45;;;;;;;13.67;2.80;;;4.90;1.00;;;;;;6244722;23;20537;-70
2022/01/28 02:11:12;;;;;;;12.27;2.10;;;4.90;99.90;;;;;;6245672;23;20166;-71
2022/01/28 02:13:41;;;;;;;15.10;2.60;;;5.00;99.90;;;;;;6244546;23;20165;-70
2022/01/28 02:16:09;;;;;;;15.07;3.13;;;5.00;1.00;;;;;;6245079;23;20265;-70
2022/01/28 02:18:37;;;;;;;12.47;2.30;;;5.00;1.00;;;;;;6245243;23;20538;-70
2022/01/28 02:21:08;;;;;;;17.73;2.20;;;5.00;1.00;;;;;;6245032;23;20165;-70
2022/01/28 02:23:36;;;;;;;12.80;3.20;;;5.10;99.90;;;;;;6244838;23;20537;-70
2022/01/28 02:26:03;;;;;;;17.40;2.70;;;5.10;99.90;;;;;;6244795;23;20578;-70
2022/01/28 02:28:34;;;;;;;19.30;3.10;;;5.10;99.90;;;;;;6244236;23;20166;-70
2022/01/28 02:31:02;;;;;;;13.53;3.30;;;5.10;1.00;;;;;;6244955;23;20194;-70
2022/01/28 02:33:29;;;;;;;18.30;2.67;;;5.10;1.00;;;;;;6244632;23;20162;-71
2022/01/28 02:36:02;;;;;;;13.97;2.93;;;5.20;1.00;;;;;;6244246;23;20213;-70
2022/01/28 02:38:30;;;;;;;12.20;2.73;;;5.10;1.00;;;;;;6245345;23;20612;-70
2022/01/28 02:40:59;;;;;;;13.00;3.17;;;5.20;1.00;;;;;;6244649;23;20169;-70
2022/01/28 02:43:34;;;;;;;12.97;2.77;;;5.20;99.90;;;;;;6244653;23;20241;-70
2022/01/28 02:46:07;;;;;;;10.60;2.23;;;5.20;99.90;;;;;;6217486;23;20244;-71
2022/01/28 02:48:37;;;;;;;10.73;2.27;;;5.20;1.00;;;;;;6244009;23;20232;-70
2022/01/28 02:51:10;;;;;;;13.13;2.40;;;5.10;1.00;;;;;;6244630;23;20162;-70
2022/01/28 02:53:45;;;;;;;15.40;3.23;;;5.10;1.00;;;;;;6244675;23;20209;-70
2022/01/28 02:56:17;;;;;;;12.30;2.10;;;5.00;99.90;;;;;;6217345;23;20178;-71
2022/01/28 02:58:44;;;;;;;11.17;2.50;;;5.00;99.90;;;;;;6245223;23;20201;-70
2022/01/28 03:01:13;;;;;;;19.83;3.00;;;5.00;99.90;;;;;;6244411;23;20247;-70
2022/01/28 03:03:40;;;;;;;12.77;1.80;;;5.00;99.90;;;;;;6244585;23;20162;-70
2022/01/28 03:06:08;;;;;;;12.83;2.60;;;5.00;99.90;;;;;;6244155;23;20163;-70
2022/01/28 03:08:35;;;;;;;14.87;3.20;;;5.00;9.50;;;;;;6244637;23;20159;-70
2022/01/28 03:11:29;;;;;;;11.30;2.20;;;5.00;99.90;;;;;;6245022;23;20165;-70
2022/01/28 03:14:20;;;;;;;18.73;3.33;;;5.00;99.90;;;;;;6244487;23;20449;-70
2022/01/28 03:17:04;;;;;;;12.03;2.73;;;5.00;99.90;;;;;;6245121;23;20246;-71
2022/01/28 03:19:43;;;;;;;15.17;2.73;;;4.90;99.90;;;;;;6244956;23;20159;-70
2022/01/28 03:22:09;;;;;;;18.77;2.73;;;5.00;1.00;;;;;;6243973;23;20543;-71
2022/01/28 03:24:37;;;;;;;13.90;2.17;;;4.90;1.00;;;;;;6244492;23;20195;-70
2022/01/28 03:27:12;;;;;;;14.50;2.50;;;5.00;1.00;;;;;;6244697;23;20464;-70
2022/01/28 03:29:39;;;;;;;10.77;2.20;;;5.00;1.00;;;;;;6217295;23;20177;-70
2022/01/28 03:32:06;;;;;;;11.77;2.17;;;5.00;1.00;;;;;;6243667;23;20173;-70
2022/01/28 03:34:33;;;;;;;18.13;2.70;;;5.00;1.00;;;;;;6244230;23;20159;-70
2022/01/28 03:37:00;;;;;;;14.70;2.50;;;4.90;62.60;;;;;;6245884;23;20155;-70
2022/01/28 03:39:27;;;;;;;10.77;2.47;;;4.90;99.90;;;;;;6246661;23;20158;-70
2022/01/28 03:41:53;;;;;;;13.83;2.77;;;4.90;99.90;;;;;;6246736;23;20162;-70
2022/01/28 03:44:23;;;;;;;17.10;2.33;;;4.90;99.90;;;;;;6245536;23;20159;-71
2022/01/28 03:46:50;;;;;;;18.07;2.40;;;4.90;1.00;;;;;;6246048;23;20182;-71
2022/01/28 03:49:17;;;;;;;17.77;2.70;;;4.80;99.90;;;;;;6246543;23;20651;-71
2022/01/28 03:51:43;;;;;;;14.23;3.13;;;4.80;99.90;;;;;;6246073;23;20586;-70
2022/01/28 03:54:10;;;;;;;15.80;2.50;;;4.80;99.90;;;;;;6246314;23;20163;-70
2022/01/28 03:56:37;;;;;;;19.67;3.10;;;4.80;99.90;;;;;;6246274;23;20163;-70
2022/01/28 03:59:04;;;;;;;17.80;3.20;;;4.70;1.00;;;;;;6246451;23;20162;-70
2022/01/28 04:01:36;;;;;;;11.30;3.03;;;4.70;1.00;;;;;;6246386;23;20643;-70
2022/01/28 04:12:10;;;;;;;13.70;2.40;;;4.80;1.00;;;;;;6179733;23;20227;-70
2022/01/28 04:14:44;;;;;;;9.43;2.00;;;4.70;1.00;;;;;;6244098;23;20253;-70
2022/01/28 04:17:24;;;;;;;16.23;2.53;;;4.70;1.00;;;;;;6218738;23;20178;-70
2022/01/28 04:19:54;;;;;;;7.80;1.93;;;4.70;1.00;;;;;;6246194;23;20165;-70
2022/01/28 04:22:21;;;;;;;12.43;2.07;;;4.60;1.00;;;;;;6246064;23;20225;-70
2022/01/28 04:24:49;;;;;;;10.17;1.73;;;4.60;1.00;;;;;;6246039;23;20158;-70
2022/01/28 04:27:16;;;;;;;10.00;2.10;;;4.50;99.90;;;;;;6246639;23;20183;-70
2022/01/28 04:29:43;;;;;;;6.30;1.70;;;4.40;99.90;;;;;;6246145;23;20159;-70
2022/01/28 04:32:12;;;;;;;11.93;1.87;;;4.40;99.90;;;;;;6246192;23;20165;-70
2022/01/28 04:34:39;;;;;;;9.63;2.57;;;4.30;19.60;;;;;;6246399;23;20167;-70
2022/01/28 04:37:15;;;;;;;13.47;2.50;;;4.30;72.80;;;;;;6245965;23;20556;-70
2022/01/28 04:39:49;;;;;;;12.07;2.37;;;4.40;1.00;;;;;;6246594;23;20582;-70
2022/01/28 04:42:29;;;;;;;14.03;2.43;;;4.40;1.00;;;;;;6219216;23;20257;-70
2022/01/28 04:45:03;;;;;;;13.33;2.47;;;4.30;1.00;;;;;;6218843;23;20174;-70
2022/01/28 04:47:38;;;;;;;14.17;2.80;;;4.40;1.00;;;;;;6219078;23;20190;-70
2022/01/28 04:50:14;;;;;;;15.27;2.90;;;4.50;1.00;;;;;;6246578;23;20536;-70
2022/01/28 04:53:03;;;;;;;13.83;2.70;;;4.40;1.00;;;;;;6244407;23;20173;-70
2022/01/28 04:55:46;;;;;;;12.60;2.00;;;4.40;1.00;;;;;;6245675;23;20594;-70
2022/01/28 04:58:28;;;;;;;15.57;2.60;;;4.50;1.00;;;;;;6218399;23;20253;-70
2022/01/28 05:01:12;;;;;;;15.83;2.67;;;4.50;1.00;;;;;;6217961;23;20174;-70
2022/01/28 05:03:53;;;;;;;14.90;2.20;;;4.50;1.00;;;;;;6245519;23;20650;-70
2022/01/28 05:06:46;;;;;;;17.50;3.67;;;4.50;1.00;;;;;;6218004;23;20175;-70
2022/01/28 05:15:14;;;;;;;14.03;2.57;;;4.60;1.00;;;;;;6245320;23;20725;-70
2022/01/28 05:23:42;;;;;;;17.57;2.50;;;4.80;7.90;;;;;;6245458;23;20170;-70
2022/01/28 05:28:54;;;;;;;13.00;2.77;;;4.90;1.00;;;;;;6244421;23;20190;-70
2022/01/28 05:31:21;;;;;;;12.30;3.10;;;4.90;1.00;;;;;;6244932;23;20159;-70
2022/01/28 05:33:48;;;;;;;15.63;3.53;;;4.90;99.90;;;;;;6245371;23;20170;-70
2022/01/28 05:36:17;;;;;;;16.13;2.80;;;4.90;99.90;;;;;;6244867;23;20163;-70
2022/01/28 05:38:44;;;;;;;13.80;2.67;;;5.00;99.90;;;;;;6244958;23;20154;-70
2022/01/28 05:41:11;;;;;;;19.53;3.13;;;5.00;99.90;;;;;;6245095;23;20167;-70
2022/01/28 05:43:38;;;;;;;12.47;2.63;;;4.90;99.90;;;;;;6244990;23;20159;-70
2022/01/28 05:46:05;;;;;;;11.97;2.60;;;5.00;99.90;;;;;;6245139;23;20601;-70
2022/01/28 05:48:31;;;;;;;15.13;2.50;;;5.00;99.90;;;;;;6244648;23;20277;-70
2022/01/28 05:50:58;;;;;;;14.63;2.57;;;5.10;99.90;;;;;;6245183;23;20181;-70
2022/01/28 05:53:26;;;;;;;11.03;2.13;;;5.10;99.90;;;;;;6244418;23;20166;-70
2022/01/28 05:55:53;;;;;;;10.33;2.40;;;5.10;99.90;;;;;;6244899;23;20158;-70
2022/01/28 05:58:20;;;;;;;15.47;2.80;;;5.10;99.90;;;;;;6244766;23;20158;-70
2022/01/28 06:00:47;;;;;;;17.97;2.63;;;5.00;99.90;;;;;;6245082;23;20165;-70
2022/01/28 06:03:14;;;;;;;15.43;2.80;;;5.10;99.90;;;;;;6244922;23;20170;-70
2022/01/28 06:05:41;;;;;;;14.83;2.83;;;5.10;99.90;;;;;;6245072;23;20466;-70
2022/01/28 06:08:08;;;;;;;15.20;2.70;;;5.10;99.90;;;;;;6244676;23;20178;-70
2022/01/28 06:10:36;;;;;;;15.93;3.17;;;5.10;66.30;;;;;;6244879;23;20475;-70
2022/01/28 06:13:05;;;;;;;14.27;2.60;;;5.10;99.90;;;;;;6245255;23;20473;-70
2022/01/28 06:15:32;;;;;;;23.10;4.10;;;5.10;1.00;;;;;;6244293;23;20162;-70
2022/01/28 06:17:59;;;;;;;14.40;3.50;;;5.00;1.00;;;;;;6245129;23;20185;-71
2022/01/28 06:20:26;;;;;;;15.90;3.07;;;4.90;1.00;;;;;;6244794;23;20159;-70
2022/01/28 06:22:53;;;;;;;14.77;3.07;;;4.90;99.90;;;;;;6244834;23;20598;-70
2022/01/28 06:25:20;;;;;;;18.47;3.60;;;4.90;1.00;;;;;;6244898;23;20257;-70
2022/01/28 06:27:48;;;;;;;11.33;2.70;;;4.90;1.00;;;;;;6244833;23;20637;-70
2022/01/28 06:30:16;;;;;;;13.33;2.93;;;4.90;99.90;;;;;;6244688;23;20169;-70
2022/01/28 06:32:44;;;;;;;14.23;3.77;;;4.90;99.90;;;;;;6245131;23;20236;-70
2022/01/28 06:35:11;;;;;;;11.77;2.67;;;4.80;99.90;;;;;;6244602;23;20166;-70
2022/01/28 06:37:39;;;;;;;17.03;3.23;;;4.80;1.00;;;;;;6244696;23;20590;-70
2022/01/28 06:40:08;;;;;;;16.17;2.77;;;4.70;1.00;;;;;;6244632;23;20166;-70
2022/01/28 06:42:35;;;;;;;13.63;2.47;;;4.80;1.00;;;;;;6244865;23;20159;-70
2022/01/28 06:45:04;;;;;;;15.63;2.27;;;4.80;1.00;;;;;;6244702;23;20162;-70
2022/01/28 06:47:31;;;;;;;14.60;2.57;;;4.80;99.90;;;;;;6244793;23;20558;-70
2022/01/28 06:49:58;;;;;;;16.77;2.80;;;4.90;1.00;;;;;;6244361;23;20186;-70
2022/01/28 06:52:25;;;;;;;12.47;2.73;;;4.80;29.40;;;;;;6244732;23;20193;-70
2022/01/28 06:54:52;;;;;;;10.47;2.10;;;4.80;1.00;;;;;;6244261;23;20169;-70
2022/01/28 06:57:19;;;;;;;14.30;2.90;;;4.80;1.00;;;;;;6244813;23;20166;-70
2022/01/28 06:59:46;;;;;;;13.63;2.50;;;4.70;99.90;;;;;;6244642;23;20242;-70
2022/01/28 07:02:14;;;;;;;11.00;2.70;;;4.70;1.00;;;;;;6244632;23;20590;-70
2022/01/28 07:04:41;;;;;;;18.27;2.87;;;4.70;99.90;;;;;;6244226;23;20195;-70
2022/01/28 07:07:08;;;;;;;13.43;2.57;;;4.70;99.90;;;;;;6244988;23;20163;-70
2022/01/28 07:09:35;;;;;;;13.90;3.03;;;4.70;99.90;;;;;;6244168;23;20189;-70
2022/01/28 07:12:02;;;;;;;15.00;3.37;;;4.60;1.00;;;;;;6246450;23;20612;-70
2022/01/28 07:14:29;;;;;;;15.00;2.37;;;4.60;1.00;;;;;;6246185;23;20165;-70
2022/01/28 07:16:56;;;;;;;14.10;3.00;;;4.70;99.90;;;;;;6246673;23;20506;-70
2022/01/28 07:19:25;;;;;;;10.90;3.13;;;4.60;99.90;;;;;;6247060;23;20233;-70
2022/01/28 07:21:52;;;;;;;15.73;3.13;;;4.70;1.00;;;;;;6246617;23;20241;-70
2022/01/28 07:24:19;;;;;;;16.10;3.20;;;4.60;99.90;;;;;;6246579;23;20158;-70
2022/01/28 07:26:46;;;;;;;17.97;3.60;;;4.60;99.90;;;;;;6246447;23;20175;-70
2022/01/28 07:29:14;;;;;;;17.13;4.23;;;4.60;99.90;;;;;;6246705;23;20189;-70
2022/01/28 07:31:41;;;;;;;20.70;4.93;;;4.60;99.90;;;;;;6246808;23;20167;-70
2022/01/28 07:34:08;;;;;;;13.27;3.87;;;4.70;99.90;;;;;;6246055;23;20249;-70
2022/01/28 07:36:37;;;;;;;16.50;3.70;;;4.70;1.00;;;;;;6246239;23;20201;-70
2022/01/28 07:39:06;;;;;;;15.97;2.93;;;4.70;99.90;;;;;;6246702;23;20159;-70
2022/01/28 07:41:34;;;;;;;12.53;2.63;;;4.60;99.90;;;;;;6246795;23;20542;-70
2022/01/28 07:44:01;;;;;;;13.53;3.60;;;4.70;1.00;;;;;;6246489;23;20159;-70
2022/01/28 07:46:28;;;;;;;13.67;3.67;;;4.70;1.00;;;;;;6246089;23;20167;-70
2022/01/28 07:48:55;;;;;;;12.87;3.27;;;4.70;1.00;;;;;;6245909;23;20198;-70
2022/01/28 07:51:22;;;;;;;10.83;2.63;;;4.70;1.00;;;;;;6246510;23;20162;-70
2022/01/28 07:53:50;;;;;;;17.50;2.97;;;4.80;1.00;;;;;;6246169;23;20470;-70
2022/01/28 07:56:17;;;;;;;12.00;2.30;;;4.80;1.00;;;;;;6245919;23;20159;-70
2022/01/28 07:58:44;;;;;;;18.23;3.67;;;4.80;1.00;;;;;;6246300;23;20158;-70
2022/01/28 08:01:11;;;;;;;17.03;3.67;;;4.90;99.90;;;;;;6246004;23;20162;-70
2022/01/28 08:03:38;;;;;;;12.30;2.77;;;4.90;99.90;;;;;;6246365;23;20198;-70
2022/01/28 08:06:05;;;;;;;18.97;3.00;;;4.90;1.00;;;;;;6245865;23;20169;-70
2022/01/28 08:08:32;;;;;;;18.07;3.20;;;4.90;1.00;;;;;;6246323;23;20621;-70
2022/01/28 08:11:00;;;;;;;19.63;3.93;;;4.90;99.90;;;;;;6246348;23;20245;-70
2022/01/28 08:13:27;;;;;;;19.17;3.63;;;5.00;1.00;;;;;;6246273;23;20162;-70
2022/01/28 08:15:54;;;;;;;12.13;2.97;;;5.00;1.00;;;;;;6244738;23;20165;-74
2022/01/28 08:18:20;;;;;;;27.60;3.93;;;5.00;1.00;;;;;;6245727;23;20155;-75
2022/01/28 08:20:47;;;;;;;16.53;3.37;;;5.10;1.00;;;;;;6245691;23;20159;-74
2022/01/28 08:23:15;;;;;;;17.60;3.70;;;5.10;1.00;;;;;;6245820;23;20547;-75
2022/01/28 08:25:42;;;;;;;20.30;3.73;;;5.10;1.00;;;;;;6245864;23;20198;-74
2022/01/28 08:28:10;;;;;;;16.07;3.37;;;5.00;1.00;;;;;;6246080;23;20609;-74
2022/01/28 08:30:38;;;;;;;14.70;2.97;;;5.00;1.00;;;;;;6245874;23;20167;-74
2022/01/28 08:33:05;;;;;;;16.93;3.93;;;5.00;1.00;;;;;;6246120;23;20462;-74
2022/01/28 08:35:37;;;;;;;16.03;3.90;;;5.00;1.00;;;;;;6244995;23;20167;-75
2022/01/28 08:38:08;;;;;;;14.60;3.30;;;5.10;1.00;;;;;;6245794;23;20159;-74
2022/01/28 08:40:35;;;;;;;14.70;3.33;;;5.40;99.90;;;;;;6246047;23;20194;-75
2022/01/28 08:43:02;;;;;;;19.83;3.77;;;5.30;1.00;;;;;;6245708;23;20177;-74
2022/01/28 08:45:30;;;;;;;13.77;3.00;;;5.20;1.00;;;;;;6245703;23;20163;-74
2022/01/28 08:47:57;;;;;;;20.93;3.40;;;5.20;1.00;;;;;;6245618;23;20484;-74
2022/01/28 08:50:24;;;;;;;21.60;3.63;;;5.30;1.00;;;;;;6245841;23;20159;-75
2022/01/28 08:52:51;;;;;;;15.23;2.90;;;5.30;1.00;;;;;;6245815;23;20455;-75
2022/01/28 08:55:18;;;;;;;15.87;2.70;;;5.30;1.00;;;;;;6245352;23;20242;-75
2022/01/28 08:57:45;;;;;;;15.83;3.00;;;5.40;1.00;;;;;;6245437;23;20163;-75
2022/01/28 09:00:14;;;;;;;19.77;3.47;;;5.40;1.00;;;;;;6245222;23;20154;-75
2022/01/28 09:02:42;;;;;;;21.53;2.93;;;5.50;1.00;;;;;;6245781;23;20195;-74
2022/01/28 09:05:09;;;;;;;11.30;2.77;;;5.50;99.90;;;;;;6244722;23;20215;-74
2022/01/28 09:07:37;;;;;;;20.37;4.57;;;5.60;99.90;;;;;;6245225;23;20238;-75
2022/01/28 09:10:10;;;;;;;18.80;3.83;;;5.60;99.90;;;;;;6245125;23;20182;-74
2022/01/28 09:12:46;;;;;;;8.30;2.67;;;5.60;99.90;;;;;;6218355;23;20181;-75
2022/01/28 09:15:19;;;;;;;19.87;2.77;;;5.70;99.90;;;;;;6218145;23;20189;-74
2022/01/28 09:17:48;;;;;;;17.60;3.03;;;5.70;1.00;;;;;;6244912;23;20232;-74
2022/01/28 09:20:15;;;;;;;13.83;3.40;;;5.70;1.00;;;;;;6245394;23;20165;-74
2022/01/28 09:22:41;;;;;;;19.03;4.43;;;5.70;1.00;;;;;;6244701;23;20169;-75
2022/01/28 09:25:09;;;;;;;14.73;2.73;;;5.80;43.90;;;;;;6245382;23;20246;-75
2022/01/28 09:27:36;;;;;;;17.90;2.90;;;5.80;1.00;;;;;;6245252;23;20634;-75
2022/01/28 09:30:03;;;;;;;20.60;3.73;;;5.80;92.10;;;;;;6245115;23;20362;-75
2022/01/28 09:32:30;;;;;;;17.03;3.40;;;5.80;1.00;;;;;;6245141;23;20163;-74
2022/01/28 09:34:58;;;;;;;13.67;3.67;;;5.80;1.00;;;;;;6245246;23;20158;-75
2022/01/28 09:37:25;;;;;;;18.60;3.93;;;5.80;1.00;;;;;;6245532;23;20455;-75
2022/01/28 09:39:52;;;;;;;14.57;2.93;;;5.80;99.90;;;;;;6245438;23;20162;-74
2022/01/28 09:42:22;;;;;;;20.83;3.93;;;5.80;99.90;;;;;;6245392;23;20162;-74
2022/01/28 09:44:49;;;;;;;19.63;3.83;;;5.80;99.90;;;;;;6245029;23;20526;-75
2022/01/28 09:47:16;;;;;;;21.83;4.53;;;5.90;99.90;;;;;;6245402;23;20169;-74
2022/01/28 09:49:44;;;;;;;17.73;3.43;;;5.90;99.90;;;;;;6245114;23;20275;-74
2022/01/28 09:52:13;;;;;;;18.80;4.13;;;6.00;99.90;;;;;;6244957;23;20162;-74
2022/01/28 09:54:43;;;;;;;15.93;4.00;;;6.10;44.10;;;;;;6244777;23;20577;-74
2022/01/28 09:57:10;;;;;;;23.07;4.03;;;6.10;1.00;;;;;;6245290;23;20554;-74
2022/01/28 09:59:37;;;;;;;22.13;4.10;;;6.10;1.00;;;;;;6245205;23;20472;-74
2022/01/28 10:02:05;;;;;;;17.63;2.90;;;6.10;1.00;;;;;;6245307;23;20537;-74
2022/01/28 10:04:32;;;;;;;16.67;3.03;;;6.00;1.00;;;;;;6244835;23;20165;-74
2022/01/28 10:06:59;;;;;;;22.07;3.27;;;6.00;1.00;;;;;;6244841;23;20162;-74
2022/01/28 10:09:27;;;;;;;20.10;3.83;;;6.20;1.00;;;;;;6244841;23;20182;-74
2022/01/28 10:12:12;;;;;;;18.83;3.43;;;6.40;1.00;;;;;;6245269;23;20167;-74
2022/01/28 10:14:59;;;;;;;20.23;3.30;;;6.50;1.00;;;;;;6244825;23;20239;-74
2022/01/28 10:17:27;;;;;;;22.47;4.97;;;6.50;1.00;;;;;;6244912;23;20213;-74
2022/01/28 10:20:07;;;;;;;16.90;3.30;;;6.40;1.00;;;;;;6245151;23;20590;-74
2022/01/28 10:22:33;;;;;;;20.47;4.53;;;6.40;1.00;;;;;;6244545;23;20162;-74
2022/01/28 10:25:05;;;;;;;17.73;3.50;;;6.60;1.00;;;;;;6244869;23;20165;-74
2022/01/28 10:27:33;;;;;;;18.57;4.33;;;6.70;1.00;;;;;;6245059;23;20238;-74
2022/01/28 10:30:06;;;;;;;22.27;4.33;;;6.80;1.00;;;;;;6245032;23;20189;-74
2022/01/28 10:32:33;;;;;;;14.40;5.70;;;7.00;1.00;;;;;;6244745;23;20166;-74
2022/01/28 10:35:00;;;;;;;18.13;3.57;;;7.20;99.90;;;;;;6244656;23;20178;-74
2022/01/28 10:37:29;;;;;;;17.57;3.40;;;7.20;1.00;;;;;;6244469;23;20170;-74
2022/01/28 10:39:58;;;;;;;22.80;3.73;;;6.80;1.00;;;;;;6245068;23;20155;-74
2022/01/28 10:42:39;;;;;;;15.60;3.10;;;7.10;1.00;;;;;;6244516;23;20195;-74
2022/01/28 10:45:11;;;;;;;16.80;4.57;;;6.80;1.00;;;;;;6244319;23;20167;-74
2022/01/28 10:47:40;;;;;;;19.70;3.43;;;6.70;1.00;;;;;;6244711;23;20213;-74
2022/01/28 10:50:23;;;;;;;15.90;3.30;;;6.80;1.00;;;;;;6244548;23;20182;-75
2022/01/28 10:53:01;;;;;;;16.67;3.90;;;7.00;99.90;;;;;;6217535;23;20185;-75
2022/01/28 10:55:30;;;;;;;16.67;3.77;;;7.10;99.90;;;;;;6218240;23;20237;-75
2022/01/28 10:58:01;;;;;;;17.43;3.17;;;7.30;99.90;;;;;;6245109;23;20242;-75
2022/01/28 11:00:29;;;;;;;11.53;3.53;;;7.40;34.70;;;;;;6244210;23;20155;-74
2022/01/28 11:03:00;;;;;;;16.73;3.43;;;7.40;1.00;;;;;;6244502;23;20159;-75
2022/01/28 11:05:29;;;;;;;20.30;3.57;;;7.40;1.00;;;;;;6244153;23;20158;-75
2022/01/28 11:07:58;;;;;;;20.57;3.83;;;7.70;1.00;;;;;;6244994;23;20166;-75
2022/01/28 11:10:25;;;;;;;15.40;3.00;;;7.50;1.00;;;;;;6244653;23;20188;-75
2022/01/28 11:12:52;;;;;;;21.50;4.20;;;7.30;1.00;;;;;;6244338;23;20173;-75
2022/01/28 11:15:22;;;;;;;20.20;4.23;;;7.30;99.90;;;;;;6244634;23;20158;-75
2022/01/28 11:17:49;;;;;;;18.77;3.70;;;7.30;24.80;;;;;;6244648;23;20163;-75
2022/01/28 11:20:20;;;;;;;18.83;3.17;;;7.40;99.90;;;;;;6244886;23;20205;-75
2022/01/28 11:23:00;;;;;;;19.17;3.90;;;7.40;34.20;;;;;;6244684;23;20165;-74
2022/01/28 11:25:40;;;;;;;12.40;4.27;;;7.20;1.00;;;;;;6244380;23;20237;-75
2022/01/28 11:28:09;;;;;;;22.10;3.47;;;7.30;1.00;;;;;;6244313;23;20202;-75
2022/01/28 11:30:46;;;;;;;17.00;3.40;;;7.50;1.00;;;;;;6244595;23;20698;-75
2022/01/28 11:33:15;;;;;;;13.70;3.23;;;7.30;1.00;;;;;;6244937;23;20164;-75
2022/01/28 11:35:59;;;;;;;17.73;3.90;;;7.50;1.00;;;;;;6244116;23;20201;-75
2022/01/28 11:38:39;;;;;;;22.90;3.40;;;7.40;1.00;;;;;;6244305;23;20159;-74
2022/01/28 11:41:12;;;;;;;15.53;4.20;;;7.70;1.00;;;;;;6244758;23;20235;-74
2022/01/28 11:43:53;;;;;;;18.90;3.33;;;7.90;1.00;;;;;;6244632;23;20182;-75
2022/01/28 11:46:23;;;;;;;12.00;3.00;;;8.00;1.00;;;;;;6244316;23;20587;-75
2022/01/28 11:49:22;;;;;;;15.53;2.80;;;7.90;1.00;;;;;;6244152;23;20182;-75
2022/01/28 11:51:50;;;;;;;14.70;2.80;;;7.90;99.90;;;;;;6244830;23;20566;-75
2022/01/28 11:54:21;;;;;;;14.07;3.00;;;8.00;99.90;;;;;;6243725;23;20197;-71
2022/01/28 11:57:14;;;;;;;21.47;3.63;;;7.90;99.90;;;;;;6243693;23;20166;-70
2022/01/28 11:59:41;;;;;;;19.63;3.77;;;8.10;1.00;;;;;;6246446;23;20155;-71
2022/01/28 12:02:20;;;;;;;18.07;3.10;;;8.10;99.90;;;;;;6246010;23;20162;-71
2022/01/28 12:04:47;;;;;;;20.80;3.93;;;7.90;99.90;;;;;;6245376;23;20166;-71
2022/01/28 12:07:18;;;;;;;15.87;2.80;;;8.30;1.00;;;;;;6246659;23;20162;-71
2022/01/28 12:09:47;;;;;;;19.00;4.50;;;8.40;99.90;;;;;;6246148;23;20629;-71
2022/01/28 12:12:22;;;;;;;12.40;2.77;;;8.50;99.90;;;;;;6245954;23;20159;-71
2022/01/28 12:15:13;;;;;;;18.20;3.33;;;8.50;29.60;;;;;;6246083;23;20464;-71
2022/01/28 12:17:44;;;;;;;18.33;3.17;;;8.60;1.00;;;;;;6245795;23;20181;-71
2022/01/28 12:20:36;;;;;;;10.30;2.77;;;9.40;1.00;;;;;;6245771;23;20159;-71
2022/01/28 12:23:29;;;;;;;19.17;3.47;;;9.50;1.00;;;;;;6215552;23;20546;-71
2022/01/28 12:25:58;;;;;;;16.70;3.33;;;8.30;1.00;;;;;;6245544;23;20174;-70
2022/01/28 12:28:28;;;;;;;16.23;3.60;;;8.20;99.90;;;;;;6246301;23;20173;-71
2022/01/28 12:31:00;;;;;;;15.80;3.00;;;8.10;1.00;;;;;;6245762;23;20183;-70
2022/01/28 12:33:30;;;;;;;17.23;3.10;;;7.90;85.10;;;;;;6246082;23;20181;-71
2022/01/28 12:36:00;;;;;;;20.13;4.20;;;8.20;8.00;;;;;;6245890;23;20158;-71
2022/01/28 12:38:31;;;;;;;18.57;4.23;;;8.00;99.90;;;;;;6245817;23;20184;-71
2022/01/28 12:41:06;;;;;;;12.50;2.70;;;7.90;82.80;;;;;;6245632;23;20195;-71
2022/01/28 12:43:34;;;;;;;14.77;3.27;;;8.10;1.00;;;;;;6245509;23;20165;-70
2022/01/28 12:46:03;;;;;;;14.53;3.17;;;8.50;1.00;;;;;;6245631;23;20159;-70
2022/01/28 12:48:33;;;;;;;20.87;3.23;;;8.30;1.00;;;;;;6246156;23;20214;-71
2022/01/28 12:51:01;;;;;;;17.83;4.20;;;8.10;1.00;;;;;;6246017;23;20189;-71
2022/01/28 12:53:36;;;;;;;19.60;4.27;;;8.40;1.00;;;;;;6245362;23;20163;-71
2022/01/28 12:56:05;;;;;;;15.60;4.17;;;9.10;1.00;;;;;;6245652;23;20487;-71
2022/01/28 12:58:37;;;;;;;20.13;3.73;;;9.10;1.00;;;;;;6245570;23;20459;-71
2022/01/28 13:01:09;;;;;;;17.27;4.27;;;9.20;1.00;;;;;;6245844;23;20178;-71
2022/01/28 13:03:46;;;;;;;15.87;4.03;;;9.10;1.00;;;;;;6245292;23;20166;-71
2022/01/28 13:06:25;;;;;;;21.07;4.60;;;8.40;1.00;;;;;;6245550;23;20261;-71
2022/01/28 13:08:54;;;;;;;18.27;3.63;;;8.40;1.00;;;;;;6245538;23;20214;-71
2022/01/28 13:11:21;;;;;;;19.60;5.07;;;8.50;1.00;;;;;;6245248;23;20179;-71
2022/01/28 13:13:53;;;;;;;17.63;4.27;;;8.50;1.00;;;;;;6245198;23;20194;-71
2022/01/28 13:16:33;;;;;;;20.60;4.53;;;8.70;1.00;;;;;;6244989;23;20163;-71
2022/01/28 13:19:03;;;;;;;17.63;3.80;;;8.60;1.00;;;;;;6245407;23;20158;-71
2022/01/28 13:21:32;;;;;;;18.20;3.60;;;8.20;1.00;;;;;;6245773;23;20533;-71
2022/01/28 13:24:15;;;;;;;14.73;4.47;;;8.70;1.00;;;;;;6245233;23;20163;-71
2022/01/28 13:26:57;;;;;;;13.77;3.77;;;9.00;1.00;;;;;;6245641;23;20159;-71
2022/01/28 13:29:33;;;;;;;13.83;2.83;;;8.60;1.00;;;;;;6245395;23;20857;-70
2022/01/28 13:32:01;;;;;;;13.57;3.17;;;8.30;1.00;;;;;;6245415;23;20165;-70
2022/01/28 13:34:42;;;;;;;16.77;3.67;;;8.10;1.00;;;;;;6245161;23;20575;-71
2022/01/28 13:37:09;;;;;;;17.13;3.70;;;8.20;1.00;;;;;;6245614;23;20241;-70
2022/01/28 13:39:44;;;;;;;21.03;3.40;;;8.60;1.00;;;;;;6245326;23;20165;-71
2022/01/28 13:42:13;;;;;;;12.63;3.13;;;8.20;1.00;;;;;;6245474;23;20170;-71
2022/01/28 13:44:46;;;;;;;15.30;3.33;;;8.80;1.00;;;;;;6245247;23;20590;-69
2022/01/28 13:47:13;;;;;;;23.00;4.00;;;8.60;1.00;;;;;;6245381;23;20602;-70
2022/01/28 13:49:41;;;;;;;18.57;3.90;;;8.40;1.00;;;;;;6244993;23;20182;-70
2022/01/28 13:52:11;;;;;;;20.27;4.50;;;8.20;1.00;;;;;;6245483;23;20242;-70
2022/01/28 13:54:38;;;;;;;12.83;3.10;;;7.90;1.00;;;;;;6244819;23;20166;-70